sensor_id;sensor_type;location;lat;lon;timestamp;P1;durP1;ratioP1;P2;durP2;ratioP2
679;SDS011;322;48.846;9.230;2024-03-06T00:01:44;11.70;;;5.93;;
679;SDS011;322;48.846;9.230;2024-03-06T00:04:12;12.57;;;5.80;;
679;SDS011;322;48.846;9.230;2024-03-06T00:06:44;15.17;;;6.80;;
679;SDS011;322;48.846;9.230;2024-03-06T00:09:12;13.70;;;6.33;;
679;SDS011;322;48.846;9.230;2024-03-06T00:11:40;10.73;;;5.00;;
679;SDS011;322;48.846;9.230;2024-03-06T00:14:07;12.37;;;5.07;;
679;SDS011;322;48.846;9.230;2024-03-06T00:16:37;11.17;;;5.30;;
679;SDS011;322;48.846;9.230;2024-03-06T00:19:05;12.40;;;5.23;;
679;SDS011;322;48.846;9.230;2024-03-06T00:21:33;12.10;;;5.37;;
679;SDS011;322;48.846;9.230;2024-03-06T00:24:03;14.17;;;5.30;;
679;SDS011;322;48.846;9.230;2024-03-06T00:26:32;10.43;;;4.40;;
679;SDS011;322;48.846;9.230;2024-03-06T00:29:00;15.03;;;5.20;;
679;SDS011;322;48.846;9.230;2024-03-06T00:31:28;12.40;;;4.63;;
679;SDS011;322;48.846;9.230;2024-03-06T00:33:56;10.10;;;4.23;;
679;SDS011;322;48.846;9.230;2024-03-06T00:36:24;12.80;;;5.30;;
679;SDS011;322;48.846;9.230;2024-03-06T00:38:52;12.07;;;4.90;;
679;SDS011;322;48.846;9.230;2024-03-06T00:41:22;11.60;;;5.30;;
679;SDS011;322;48.846;9.230;2024-03-06T00:43:50;13.80;;;5.13;;
679;SDS011;322;48.846;9.230;2024-03-06T00:46:18;12.27;;;5.80;;
679;SDS011;322;48.846;9.230;2024-03-06T00:48:46;11.40;;;5.27;;
679;SDS011;322;48.846;9.230;2024-03-06T00:51:14;13.63;;;5.40;;
679;SDS011;322;48.846;9.230;2024-03-06T00:53:42;10.33;;;4.57;;
679;SDS011;322;48.846;9.230;2024-03-06T00:56:09;11.40;;;5.30;;
679;SDS011;322;48.846;9.230;2024-03-06T00:58:39;13.00;;;5.50;;
679;SDS011;322;48.846;9.230;2024-03-06T01:01:07;11.50;;;5.70;;
679;SDS011;322;48.846;9.230;2024-03-06T01:03:37;14.30;;;5.47;;
679;SDS011;322;48.846;9.230;2024-03-06T01:06:05;11.07;;;5.00;;
679;SDS011;322;48.846;9.230;2024-03-06T01:08:33;11.77;;;4.93;;
679;SDS011;322;48.846;9.230;2024-03-06T01:11:01;12.07;;;6.17;;
679;SDS011;322;48.846;9.230;2024-03-06T01:13:29;11.03;;;4.80;;
679;SDS011;322;48.846;9.230;2024-03-06T01:15:59;12.13;;;5.27;;
679;SDS011;322;48.846;9.230;2024-03-06T01:18:27;14.00;;;6.17;;
679;SDS011;322;48.846;9.230;2024-03-06T01:20:55;10.87;;;4.93;;
679;SDS011;322;48.846;9.230;2024-03-06T01:23:23;11.63;;;5.67;;
679;SDS011;322;48.846;9.230;2024-03-06T01:25:51;11.93;;;5.57;;
679;SDS011;322;48.846;9.230;2024-03-06T01:28:19;12.90;;;5.53;;
679;SDS011;322;48.846;9.230;2024-03-06T01:30:47;10.77;;;5.50;;
679;SDS011;322;48.846;9.230;2024-03-06T01:33:16;12.07;;;6.27;;
679;SDS011;322;48.846;9.230;2024-03-06T01:35:44;11.40;;;5.37;;
679;SDS011;322;48.846;9.230;2024-03-06T01:38:13;12.47;;;5.53;;
679;SDS011;322;48.846;9.230;2024-03-06T01:40:43;12.13;;;6.30;;
679;SDS011;322;48.846;9.230;2024-03-06T01:43:20;10.60;;;5.30;;
679;SDS011;322;48.846;9.230;2024-03-06T01:45:49;12.97;;;7.53;;
679;SDS011;322;48.846;9.230;2024-03-06T01:48:21;12.90;;;6.00;;
679;SDS011;322;48.846;9.230;2024-03-06T01:50:52;13.93;;;6.60;;
679;SDS011;322;48.846;9.230;2024-03-06T01:53:22;13.77;;;6.77;;
679;SDS011;322;48.846;9.230;2024-03-06T01:55:51;14.97;;;7.37;;
679;SDS011;322;48.846;9.230;2024-03-06T01:58:19;13.80;;;7.07;;
679;SDS011;322;48.846;9.230;2024-03-06T02:00:48;13.40;;;7.10;;
679;SDS011;322;48.846;9.230;2024-03-06T02:03:17;12.47;;;7.43;;
679;SDS011;322;48.846;9.230;2024-03-06T02:05:48;12.47;;;6.30;;
679;SDS011;322;48.846;9.230;2024-03-06T02:08:16;13.00;;;6.83;;
679;SDS011;322;48.846;9.230;2024-03-06T02:10:45;13.23;;;6.97;;
679;SDS011;322;48.846;9.230;2024-03-06T02:13:13;14.20;;;7.20;;
679;SDS011;322;48.846;9.230;2024-03-06T02:15:41;13.40;;;7.27;;
679;SDS011;322;48.846;9.230;2024-03-06T02:18:11;11.03;;;6.47;;
679;SDS011;322;48.846;9.230;2024-03-06T02:20:41;15.40;;;7.70;;
679;SDS011;322;48.846;9.230;2024-03-06T02:23:08;13.33;;;6.63;;
679;SDS011;322;48.846;9.230;2024-03-06T02:25:37;16.00;;;6.73;;
679;SDS011;322;48.846;9.230;2024-03-06T02:28:04;15.57;;;6.57;;
679;SDS011;322;48.846;9.230;2024-03-06T02:30:33;13.10;;;6.17;;
679;SDS011;322;48.846;9.230;2024-03-06T02:33:04;13.07;;;6.73;;
679;SDS011;322;48.846;9.230;2024-03-06T02:35:33;12.23;;;6.03;;
679;SDS011;322;48.846;9.230;2024-03-06T02:38:03;14.90;;;7.00;;
679;SDS011;322;48.846;9.230;2024-03-06T02:40:32;13.73;;;6.43;;
679;SDS011;322;48.846;9.230;2024-03-06T02:43:00;12.93;;;6.27;;
679;SDS011;322;48.846;9.230;2024-03-06T02:45:28;12.53;;;5.90;;
679;SDS011;322;48.846;9.230;2024-03-06T02:47:56;12.33;;;5.70;;
679;SDS011;322;48.846;9.230;2024-03-06T02:50:24;12.40;;;6.30;;
679;SDS011;322;48.846;9.230;2024-03-06T02:52:52;15.07;;;6.20;;
679;SDS011;322;48.846;9.230;2024-03-06T02:55:22;12.13;;;5.97;;
679;SDS011;322;48.846;9.230;2024-03-06T02:57:51;13.53;;;6.30;;
679;SDS011;322;48.846;9.230;2024-03-06T03:00:19;12.00;;;6.10;;
679;SDS011;322;48.846;9.230;2024-03-06T03:02:48;14.13;;;6.20;;
679;SDS011;322;48.846;9.230;2024-03-06T03:05:16;13.43;;;6.07;;
679;SDS011;322;48.846;9.230;2024-03-06T03:07:44;12.80;;;6.27;;
679;SDS011;322;48.846;9.230;2024-03-06T03:10:12;12.77;;;5.87;;
679;SDS011;322;48.846;9.230;2024-03-06T03:12:42;13.73;;;6.37;;
679;SDS011;322;48.846;9.230;2024-03-06T03:15:10;13.63;;;6.43;;
679;SDS011;322;48.846;9.230;2024-03-06T03:17:38;11.50;;;6.03;;
679;SDS011;322;48.846;9.230;2024-03-06T03:20:06;12.03;;;6.30;;
679;SDS011;322;48.846;9.230;2024-03-06T03:22:37;10.97;;;5.73;;
679;SDS011;322;48.846;9.230;2024-03-06T03:25:07;11.50;;;6.20;;
679;SDS011;322;48.846;9.230;2024-03-06T03:27:36;14.63;;;6.00;;
679;SDS011;322;48.846;9.230;2024-03-06T03:30:06;12.07;;;6.53;;
679;SDS011;322;48.846;9.230;2024-03-06T03:32:36;12.07;;;6.10;;
679;SDS011;322;48.846;9.230;2024-03-06T03:35:05;15.80;;;5.93;;
679;SDS011;322;48.846;9.230;2024-03-06T03:37:33;12.20;;;5.97;;
679;SDS011;322;48.846;9.230;2024-03-06T03:40:01;11.00;;;5.80;;
679;SDS011;322;48.846;9.230;2024-03-06T03:42:30;12.30;;;5.90;;
679;SDS011;322;48.846;9.230;2024-03-06T03:44:58;11.87;;;5.27;;
679;SDS011;322;48.846;9.230;2024-03-06T03:47:27;13.90;;;5.80;;
679;SDS011;322;48.846;9.230;2024-03-06T03:49:55;11.77;;;4.77;;
679;SDS011;322;48.846;9.230;2024-03-06T03:52:35;9.43;;;4.90;;
679;SDS011;322;48.846;9.230;2024-03-06T03:55:08;9.73;;;4.57;;
679;SDS011;322;48.846;9.230;2024-03-06T03:57:36;10.33;;;5.20;;
679;SDS011;322;48.846;9.230;2024-03-06T04:00:04;10.87;;;5.20;;
679;SDS011;322;48.846;9.230;2024-03-06T04:02:39;9.53;;;4.73;;
679;SDS011;322;48.846;9.230;2024-03-06T04:05:07;10.57;;;5.07;;
679;SDS011;322;48.846;9.230;2024-03-06T04:07:37;12.10;;;4.93;;
679;SDS011;322;48.846;9.230;2024-03-06T04:10:05;10.60;;;5.10;;
679;SDS011;322;48.846;9.230;2024-03-06T04:12:36;13.30;;;6.80;;
679;SDS011;322;48.846;9.230;2024-03-06T04:15:06;13.07;;;5.27;;
679;SDS011;322;48.846;9.230;2024-03-06T04:17:34;11.20;;;5.10;;
679;SDS011;322;48.846;9.230;2024-03-06T04:20:04;10.70;;;4.80;;
679;SDS011;322;48.846;9.230;2024-03-06T04:22:34;11.13;;;5.50;;
679;SDS011;322;48.846;9.230;2024-03-06T04:25:02;11.57;;;5.17;;
679;SDS011;322;48.846;9.230;2024-03-06T04:27:31;11.50;;;5.23;;
679;SDS011;322;48.846;9.230;2024-03-06T04:29:59;11.47;;;5.13;;
679;SDS011;322;48.846;9.230;2024-03-06T04:32:27;11.17;;;5.13;;
679;SDS011;322;48.846;9.230;2024-03-06T04:34:55;12.50;;;6.03;;
679;SDS011;322;48.846;9.230;2024-03-06T04:37:24;14.10;;;5.23;;
679;SDS011;322;48.846;9.230;2024-03-06T04:39:53;10.20;;;4.60;;
679;SDS011;322;48.846;9.230;2024-03-06T04:42:20;11.93;;;4.93;;
679;SDS011;322;48.846;9.230;2024-03-06T04:44:48;11.47;;;4.57;;
679;SDS011;322;48.846;9.230;2024-03-06T04:47:16;10.30;;;4.80;;
679;SDS011;322;48.846;9.230;2024-03-06T04:49:45;10.90;;;4.47;;
679;SDS011;322;48.846;9.230;2024-03-06T04:52:13;10.60;;;4.60;;
679;SDS011;322;48.846;9.230;2024-03-06T04:54:42;10.67;;;4.53;;
679;SDS011;322;48.846;9.230;2024-03-06T04:57:10;12.43;;;4.50;;
679;SDS011;322;48.846;9.230;2024-03-06T04:59:38;12.17;;;5.30;;
679;SDS011;322;48.846;9.230;2024-03-06T05:02:06;11.60;;;5.10;;
679;SDS011;322;48.846;9.230;2024-03-06T05:04:35;10.70;;;5.10;;
679;SDS011;322;48.846;9.230;2024-03-06T05:07:21;10.00;;;4.50;;
679;SDS011;322;48.846;9.230;2024-03-06T05:10:08;12.10;;;5.10;;
679;SDS011;322;48.846;9.230;2024-03-06T05:12:54;12.90;;;5.80;;
679;SDS011;322;48.846;9.230;2024-03-06T05:15:39;10.90;;;4.57;;
679;SDS011;322;48.846;9.230;2024-03-06T05:18:26;11.70;;;5.43;;
679;SDS011;322;48.846;9.230;2024-03-06T05:21:11;9.90;;;4.70;;
679;SDS011;322;48.846;9.230;2024-03-06T05:23:57;10.50;;;4.27;;
679;SDS011;322;48.846;9.230;2024-03-06T05:26:44;9.80;;;4.23;;
679;SDS011;322;48.846;9.230;2024-03-06T05:29:30;12.17;;;5.03;;
679;SDS011;322;48.846;9.230;2024-03-06T05:32:15;12.73;;;4.90;;
679;SDS011;322;48.846;9.230;2024-03-06T05:35:01;13.60;;;4.90;;
679;SDS011;322;48.846;9.230;2024-03-06T05:37:48;14.23;;;5.00;;
679;SDS011;322;48.846;9.230;2024-03-06T05:40:33;10.30;;;4.53;;
679;SDS011;322;48.846;9.230;2024-03-06T05:43:22;11.20;;;4.53;;
679;SDS011;322;48.846;9.230;2024-03-06T05:46:08;12.33;;;5.47;;
679;SDS011;322;48.846;9.230;2024-03-06T05:48:53;11.47;;;4.77;;
679;SDS011;322;48.846;9.230;2024-03-06T05:51:39;12.40;;;6.03;;
679;SDS011;322;48.846;9.230;2024-03-06T05:54:25;12.87;;;5.47;;
679;SDS011;322;48.846;9.230;2024-03-06T05:57:11;13.40;;;5.30;;
679;SDS011;322;48.846;9.230;2024-03-06T05:59:58;11.60;;;5.10;;
679;SDS011;322;48.846;9.230;2024-03-06T06:02:26;11.93;;;5.30;;
679;SDS011;322;48.846;9.230;2024-03-06T06:04:54;14.03;;;5.57;;
679;SDS011;322;48.846;9.230;2024-03-06T06:07:42;11.93;;;5.10;;
679;SDS011;322;48.846;9.230;2024-03-06T06:10:10;14.13;;;6.20;;
679;SDS011;322;48.846;9.230;2024-03-06T06:12:40;14.30;;;5.40;;
679;SDS011;322;48.846;9.230;2024-03-06T06:15:10;12.30;;;5.93;;
679;SDS011;322;48.846;9.230;2024-03-06T06:17:38;15.13;;;5.20;;
679;SDS011;322;48.846;9.230;2024-03-06T06:20:10;15.50;;;5.77;;
679;SDS011;322;48.846;9.230;2024-03-06T06:22:42;12.50;;;5.50;;
679;SDS011;322;48.846;9.230;2024-03-06T06:25:10;14.57;;;6.03;;
679;SDS011;322;48.846;9.230;2024-03-06T06:27:39;12.13;;;4.70;;
679;SDS011;322;48.846;9.230;2024-03-06T06:30:07;12.27;;;4.87;;
679;SDS011;322;48.846;9.230;2024-03-06T06:32:40;11.83;;;5.47;;
679;SDS011;322;48.846;9.230;2024-03-06T06:35:09;14.83;;;5.17;;
679;SDS011;322;48.846;9.230;2024-03-06T06:37:40;14.10;;;5.10;;
679;SDS011;322;48.846;9.230;2024-03-06T06:40:08;13.13;;;5.43;;
679;SDS011;322;48.846;9.230;2024-03-06T06:42:43;13.67;;;5.47;;
679;SDS011;322;48.846;9.230;2024-03-06T06:45:13;15.97;;;5.50;;
679;SDS011;322;48.846;9.230;2024-03-06T06:47:43;12.63;;;5.27;;
679;SDS011;322;48.846;9.230;2024-03-06T06:50:11;11.77;;;4.97;;
679;SDS011;322;48.846;9.230;2024-03-06T06:52:39;14.03;;;7.47;;
679;SDS011;322;48.846;9.230;2024-03-06T06:55:08;17.37;;;5.20;;
679;SDS011;322;48.846;9.230;2024-03-06T06:57:37;11.90;;;4.50;;
679;SDS011;322;48.846;9.230;2024-03-06T07:00:06;16.33;;;5.70;;
679;SDS011;322;48.846;9.230;2024-03-06T07:02:38;15.57;;;6.63;;
679;SDS011;322;48.846;9.230;2024-03-06T07:05:09;14.87;;;6.20;;
679;SDS011;322;48.846;9.230;2024-03-06T07:07:38;12.07;;;5.63;;
679;SDS011;322;48.846;9.230;2024-03-06T07:10:07;16.27;;;5.90;;
679;SDS011;322;48.846;9.230;2024-03-06T07:12:35;16.43;;;5.90;;
679;SDS011;322;48.846;9.230;2024-03-06T07:15:04;15.07;;;6.20;;
679;SDS011;322;48.846;9.230;2024-03-06T07:17:33;12.27;;;6.20;;
679;SDS011;322;48.846;9.230;2024-03-06T07:20:01;12.40;;;6.70;;
679;SDS011;322;48.846;9.230;2024-03-06T07:22:33;12.90;;;6.70;;
679;SDS011;322;48.846;9.230;2024-03-06T07:25:01;14.73;;;7.10;;
679;SDS011;322;48.846;9.230;2024-03-06T07:27:29;13.77;;;6.50;;
679;SDS011;322;48.846;9.230;2024-03-06T07:29:57;12.60;;;5.50;;
679;SDS011;322;48.846;9.230;2024-03-06T07:32:25;17.43;;;5.60;;
679;SDS011;322;48.846;9.230;2024-03-06T07:34:53;12.50;;;5.40;;
679;SDS011;322;48.846;9.230;2024-03-06T07:37:21;13.13;;;5.67;;
679;SDS011;322;48.846;9.230;2024-03-06T07:39:50;13.47;;;5.43;;
679;SDS011;322;48.846;9.230;2024-03-06T07:42:19;12.17;;;5.57;;
679;SDS011;322;48.846;9.230;2024-03-06T07:44:47;12.90;;;6.07;;
679;SDS011;322;48.846;9.230;2024-03-06T07:47:16;17.23;;;6.50;;
679;SDS011;322;48.846;9.230;2024-03-06T07:49:44;12.60;;;5.53;;
679;SDS011;322;48.846;9.230;2024-03-06T07:52:12;27.73;;;8.00;;
679;SDS011;322;48.846;9.230;2024-03-06T07:54:40;14.10;;;5.70;;
679;SDS011;322;48.846;9.230;2024-03-06T07:57:09;18.43;;;5.83;;
679;SDS011;322;48.846;9.230;2024-03-06T07:59:37;15.97;;;6.63;;
679;SDS011;322;48.846;9.230;2024-03-06T08:02:06;19.70;;;7.27;;
679;SDS011;322;48.846;9.230;2024-03-06T08:04:34;14.43;;;6.97;;
679;SDS011;322;48.846;9.230;2024-03-06T08:07:02;18.57;;;6.57;;
679;SDS011;322;48.846;9.230;2024-03-06T08:09:31;17.07;;;6.70;;
679;SDS011;322;48.846;9.230;2024-03-06T08:11:59;16.93;;;8.40;;
679;SDS011;322;48.846;9.230;2024-03-06T08:14:28;15.53;;;6.50;;
679;SDS011;322;48.846;9.230;2024-03-06T08:16:56;19.80;;;8.20;;
679;SDS011;322;48.846;9.230;2024-03-06T08:19:24;17.03;;;7.23;;
679;SDS011;322;48.846;9.230;2024-03-06T08:21:53;14.87;;;5.83;;
679;SDS011;322;48.846;9.230;2024-03-06T08:24:21;13.13;;;6.10;;
679;SDS011;322;48.846;9.230;2024-03-06T08:26:48;13.50;;;6.00;;
679;SDS011;322;48.846;9.230;2024-03-06T08:29:16;11.10;;;5.23;;
679;SDS011;322;48.846;9.230;2024-03-06T08:31:46;13.90;;;5.87;;
679;SDS011;322;48.846;9.230;2024-03-06T08:34:14;14.30;;;5.50;;
679;SDS011;322;48.846;9.230;2024-03-06T08:36:44;11.67;;;5.17;;
679;SDS011;322;48.846;9.230;2024-03-06T08:39:12;14.03;;;6.00;;
679;SDS011;322;48.846;9.230;2024-03-06T08:41:42;11.50;;;6.00;;
679;SDS011;322;48.846;9.230;2024-03-06T08:44:10;14.87;;;5.93;;
679;SDS011;322;48.846;9.230;2024-03-06T08:46:38;15.67;;;6.17;;
679;SDS011;322;48.846;9.230;2024-03-06T08:49:07;10.67;;;5.67;;
679;SDS011;322;48.846;9.230;2024-03-06T08:51:37;12.10;;;6.00;;
679;SDS011;322;48.846;9.230;2024-03-06T08:54:05;14.23;;;6.03;;
679;SDS011;322;48.846;9.230;2024-03-06T08:56:35;16.63;;;6.87;;
679;SDS011;322;48.846;9.230;2024-03-06T08:59:04;16.00;;;7.40;;
679;SDS011;322;48.846;9.230;2024-03-06T09:01:31;14.23;;;7.50;;
679;SDS011;322;48.846;9.230;2024-03-06T09:03:59;16.97;;;7.10;;
679;SDS011;322;48.846;9.230;2024-03-06T09:06:29;16.20;;;8.67;;
679;SDS011;322;48.846;9.230;2024-03-06T09:08:57;17.53;;;7.63;;
679;SDS011;322;48.846;9.230;2024-03-06T09:11:25;15.03;;;7.27;;
679;SDS011;322;48.846;9.230;2024-03-06T09:13:53;13.30;;;7.93;;
679;SDS011;322;48.846;9.230;2024-03-06T09:16:21;14.00;;;7.63;;
679;SDS011;322;48.846;9.230;2024-03-06T09:18:49;15.40;;;7.73;;
679;SDS011;322;48.846;9.230;2024-03-06T09:21:17;14.13;;;7.87;;
679;SDS011;322;48.846;9.230;2024-03-06T09:23:47;18.93;;;9.00;;
679;SDS011;322;48.846;9.230;2024-03-06T09:26:17;18.30;;;8.23;;
679;SDS011;322;48.846;9.230;2024-03-06T09:28:46;15.93;;;8.50;;
679;SDS011;322;48.846;9.230;2024-03-06T09:31:15;15.23;;;8.13;;
679;SDS011;322;48.846;9.230;2024-03-06T09:33:43;14.57;;;8.90;;
679;SDS011;322;48.846;9.230;2024-03-06T09:36:12;15.03;;;8.10;;
679;SDS011;322;48.846;9.230;2024-03-06T09:38:40;13.83;;;7.90;;
679;SDS011;322;48.846;9.230;2024-03-06T09:41:10;16.00;;;8.33;;
679;SDS011;322;48.846;9.230;2024-03-06T09:43:38;14.83;;;8.37;;
679;SDS011;322;48.846;9.230;2024-03-06T09:46:07;14.40;;;8.07;;
679;SDS011;322;48.846;9.230;2024-03-06T09:48:35;16.90;;;8.60;;
679;SDS011;322;48.846;9.230;2024-03-06T09:51:09;16.50;;;8.03;;
679;SDS011;322;48.846;9.230;2024-03-06T09:53:38;16.23;;;9.23;;
679;SDS011;322;48.846;9.230;2024-03-06T09:56:07;18.37;;;10.47;;
679;SDS011;322;48.846;9.230;2024-03-06T09:58:37;15.97;;;10.00;;
679;SDS011;322;48.846;9.230;2024-03-06T10:01:05;17.47;;;10.00;;
679;SDS011;322;48.846;9.230;2024-03-06T10:03:36;19.17;;;10.67;;
679;SDS011;322;48.846;9.230;2024-03-06T10:06:04;18.03;;;10.90;;
679;SDS011;322;48.846;9.230;2024-03-06T10:08:41;21.70;;;12.83;;
679;SDS011;322;48.846;9.230;2024-03-06T10:11:11;20.20;;;10.97;;
679;SDS011;322;48.846;9.230;2024-03-06T10:13:39;18.60;;;12.17;;
679;SDS011;322;48.846;9.230;2024-03-06T10:16:07;23.27;;;11.97;;
679;SDS011;322;48.846;9.230;2024-03-06T10:18:37;21.43;;;12.87;;
679;SDS011;322;48.846;9.230;2024-03-06T10:21:05;19.30;;;12.73;;
679;SDS011;322;48.846;9.230;2024-03-06T10:23:34;25.73;;;13.73;;
679;SDS011;322;48.846;9.230;2024-03-06T10:26:03;19.00;;;11.63;;
679;SDS011;322;48.846;9.230;2024-03-06T10:28:37;20.93;;;12.83;;
679;SDS011;322;48.846;9.230;2024-03-06T10:31:05;21.03;;;12.70;;
679;SDS011;322;48.846;9.230;2024-03-06T10:33:34;20.40;;;13.67;;
679;SDS011;322;48.846;9.230;2024-03-06T10:36:04;23.97;;;13.80;;
679;SDS011;322;48.846;9.230;2024-03-06T10:38:33;22.80;;;13.83;;
679;SDS011;322;48.846;9.230;2024-03-06T10:41:05;23.33;;;12.80;;
679;SDS011;322;48.846;9.230;2024-03-06T10:43:42;20.67;;;12.97;;
679;SDS011;322;48.846;9.230;2024-03-06T10:46:13;23.03;;;13.10;;
679;SDS011;322;48.846;9.230;2024-03-06T10:48:43;26.10;;;15.43;;
679;SDS011;322;48.846;9.230;2024-03-06T10:51:12;27.60;;;15.60;;
679;SDS011;322;48.846;9.230;2024-03-06T10:53:42;29.00;;;16.07;;
679;SDS011;322;48.846;9.230;2024-03-06T10:56:12;25.80;;;15.10;;
679;SDS011;322;48.846;9.230;2024-03-06T10:58:42;27.50;;;14.73;;
679;SDS011;322;48.846;9.230;2024-03-06T11:01:12;25.63;;;16.63;;
679;SDS011;322;48.846;9.230;2024-03-06T11:03:44;26.77;;;16.77;;
679;SDS011;322;48.846;9.230;2024-03-06T11:06:13;32.20;;;18.00;;
679;SDS011;322;48.846;9.230;2024-03-06T11:08:42;25.53;;;16.80;;
679;SDS011;322;48.846;9.230;2024-03-06T11:11:19;25.00;;;16.50;;
679;SDS011;322;48.846;9.230;2024-03-06T11:13:49;28.87;;;16.10;;
679;SDS011;322;48.846;9.230;2024-03-06T11:16:26;27.00;;;15.93;;
679;SDS011;322;48.846;9.230;2024-03-06T11:19:04;27.57;;;16.03;;
679;SDS011;322;48.846;9.230;2024-03-06T11:21:34;23.60;;;14.00;;
679;SDS011;322;48.846;9.230;2024-03-06T11:24:12;24.60;;;14.20;;
679;SDS011;322;48.846;9.230;2024-03-06T11:26:46;25.10;;;15.20;;
679;SDS011;322;48.846;9.230;2024-03-06T11:29:19;24.47;;;13.97;;
679;SDS011;322;48.846;9.230;2024-03-06T11:32:00;28.03;;;14.53;;
679;SDS011;322;48.846;9.230;2024-03-06T11:34:36;27.30;;;13.93;;
679;SDS011;322;48.846;9.230;2024-03-06T11:37:05;28.93;;;16.80;;
679;SDS011;322;48.846;9.230;2024-03-06T11:39:36;28.10;;;16.20;;
679;SDS011;322;48.846;9.230;2024-03-06T11:42:06;28.70;;;16.40;;
679;SDS011;322;48.846;9.230;2024-03-06T11:44:36;29.53;;;15.67;;
679;SDS011;322;48.846;9.230;2024-03-06T11:47:20;24.80;;;14.47;;
679;SDS011;322;48.846;9.230;2024-03-06T11:49:48;28.50;;;16.10;;
679;SDS011;322;48.846;9.230;2024-03-06T11:52:17;27.17;;;15.53;;
679;SDS011;322;48.846;9.230;2024-03-06T11:54:45;27.13;;;15.27;;
679;SDS011;322;48.846;9.230;2024-03-06T11:57:13;26.00;;;15.20;;
679;SDS011;322;48.846;9.230;2024-03-06T11:59:43;29.10;;;16.33;;
679;SDS011;322;48.846;9.230;2024-03-06T12:02:12;28.03;;;15.97;;
679;SDS011;322;48.846;9.230;2024-03-06T12:04:40;24.17;;;13.73;;
679;SDS011;322;48.846;9.230;2024-03-06T12:07:08;29.37;;;15.60;;
679;SDS011;322;48.846;9.230;2024-03-06T12:09:37;27.07;;;15.67;;
679;SDS011;322;48.846;9.230;2024-03-06T12:12:09;25.20;;;15.03;;
679;SDS011;322;48.846;9.230;2024-03-06T12:14:38;22.47;;;13.17;;
679;SDS011;322;48.846;9.230;2024-03-06T12:17:11;28.37;;;16.23;;
679;SDS011;322;48.846;9.230;2024-03-06T12:19:41;26.80;;;16.07;;
679;SDS011;322;48.846;9.230;2024-03-06T12:22:11;22.80;;;13.00;;
679;SDS011;322;48.846;9.230;2024-03-06T12:24:41;26.77;;;14.67;;
679;SDS011;322;48.846;9.230;2024-03-06T12:27:09;27.20;;;16.30;;
679;SDS011;322;48.846;9.230;2024-03-06T12:29:39;29.13;;;15.83;;
679;SDS011;322;48.846;9.230;2024-03-06T12:32:16;25.10;;;15.07;;
679;SDS011;322;48.846;9.230;2024-03-06T12:34:55;28.07;;;15.70;;
679;SDS011;322;48.846;9.230;2024-03-06T12:37:28;26.00;;;16.03;;
679;SDS011;322;48.846;9.230;2024-03-06T12:40:02;30.33;;;15.57;;
679;SDS011;322;48.846;9.230;2024-03-06T12:42:31;30.40;;;16.40;;
679;SDS011;322;48.846;9.230;2024-03-06T12:45:00;30.90;;;16.60;;
679;SDS011;322;48.846;9.230;2024-03-06T12:47:31;30.07;;;17.77;;
679;SDS011;322;48.846;9.230;2024-03-06T12:49:59;35.07;;;20.67;;
679;SDS011;322;48.846;9.230;2024-03-06T12:52:27;31.77;;;19.40;;
679;SDS011;322;48.846;9.230;2024-03-06T12:54:55;34.97;;;20.53;;
679;SDS011;322;48.846;9.230;2024-03-06T12:57:23;30.07;;;19.47;;
679;SDS011;322;48.846;9.230;2024-03-06T12:59:51;31.60;;;17.27;;
679;SDS011;322;48.846;9.230;2024-03-06T13:02:20;30.70;;;17.77;;
679;SDS011;322;48.846;9.230;2024-03-06T13:04:49;32.47;;;19.60;;
679;SDS011;322;48.846;9.230;2024-03-06T13:07:17;32.70;;;21.07;;
679;SDS011;322;48.846;9.230;2024-03-06T13:09:45;33.63;;;21.90;;
679;SDS011;322;48.846;9.230;2024-03-06T13:12:13;35.67;;;19.43;;
679;SDS011;322;48.846;9.230;2024-03-06T13:14:42;35.10;;;21.10;;
679;SDS011;322;48.846;9.230;2024-03-06T13:17:10;36.90;;;20.63;;
679;SDS011;322;48.846;9.230;2024-03-06T13:19:38;38.80;;;22.70;;
679;SDS011;322;48.846;9.230;2024-03-06T13:22:07;38.10;;;21.93;;
679;SDS011;322;48.846;9.230;2024-03-06T13:24:35;34.63;;;20.70;;
679;SDS011;322;48.846;9.230;2024-03-06T13:27:09;39.97;;;23.00;;
679;SDS011;322;48.846;9.230;2024-03-06T13:29:37;36.90;;;22.30;;
679;SDS011;322;48.846;9.230;2024-03-06T13:32:06;40.70;;;23.47;;
679;SDS011;322;48.846;9.230;2024-03-06T13:34:34;36.07;;;21.90;;
679;SDS011;322;48.846;9.230;2024-03-06T13:37:02;38.23;;;24.07;;
679;SDS011;322;48.846;9.230;2024-03-06T13:39:31;39.30;;;26.37;;
679;SDS011;322;48.846;9.230;2024-03-06T13:41:59;38.17;;;22.30;;
679;SDS011;322;48.846;9.230;2024-03-06T13:44:27;41.03;;;24.03;;
679;SDS011;322;48.846;9.230;2024-03-06T13:46:55;38.80;;;21.77;;
679;SDS011;322;48.846;9.230;2024-03-06T13:49:34;35.00;;;20.63;;
679;SDS011;322;48.846;9.230;2024-03-06T13:52:03;35.70;;;20.67;;
679;SDS011;322;48.846;9.230;2024-03-06T13:54:34;37.33;;;22.17;;
679;SDS011;322;48.846;9.230;2024-03-06T13:57:03;37.90;;;20.57;;
679;SDS011;322;48.846;9.230;2024-03-06T13:59:32;41.10;;;21.53;;
679;SDS011;322;48.846;9.230;2024-03-06T14:02:00;37.47;;;21.67;;
679;SDS011;322;48.846;9.230;2024-03-06T14:04:29;36.20;;;21.10;;
679;SDS011;322;48.846;9.230;2024-03-06T14:06:58;35.37;;;21.83;;
679;SDS011;322;48.846;9.230;2024-03-06T14:09:26;40.07;;;22.50;;
679;SDS011;322;48.846;9.230;2024-03-06T14:11:56;35.20;;;21.53;;
679;SDS011;322;48.846;9.230;2024-03-06T14:14:25;39.23;;;22.30;;
679;SDS011;322;48.846;9.230;2024-03-06T14:16:53;38.07;;;20.30;;
679;SDS011;322;48.846;9.230;2024-03-06T14:19:21;37.70;;;20.60;;
679;SDS011;322;48.846;9.230;2024-03-06T14:21:49;43.90;;;23.60;;
679;SDS011;322;48.846;9.230;2024-03-06T14:24:17;49.10;;;24.63;;
679;SDS011;322;48.846;9.230;2024-03-06T14:26:47;38.83;;;23.37;;
679;SDS011;322;48.846;9.230;2024-03-06T14:29:17;38.40;;;21.97;;
679;SDS011;322;48.846;9.230;2024-03-06T14:31:45;37.20;;;23.07;;
679;SDS011;322;48.846;9.230;2024-03-06T14:34:13;40.67;;;22.73;;
679;SDS011;322;48.846;9.230;2024-03-06T14:36:41;38.20;;;23.07;;
679;SDS011;322;48.846;9.230;2024-03-06T14:39:09;38.57;;;21.97;;
679;SDS011;322;48.846;9.230;2024-03-06T14:41:37;37.87;;;22.30;;
679;SDS011;322;48.846;9.230;2024-03-06T14:44:08;40.90;;;22.23;;
679;SDS011;322;48.846;9.230;2024-03-06T14:46:38;38.60;;;25.57;;
679;SDS011;322;48.846;9.230;2024-03-06T14:49:07;40.57;;;24.53;;
679;SDS011;322;48.846;9.230;2024-03-06T14:51:35;39.10;;;21.50;;
679;SDS011;322;48.846;9.230;2024-03-06T14:54:03;39.30;;;23.30;;
679;SDS011;322;48.846;9.230;2024-03-06T14:56:32;35.70;;;21.40;;
679;SDS011;322;48.846;9.230;2024-03-06T14:59:00;38.33;;;22.23;;
679;SDS011;322;48.846;9.230;2024-03-06T15:01:28;42.23;;;22.90;;
679;SDS011;322;48.846;9.230;2024-03-06T15:03:57;36.03;;;22.30;;
679;SDS011;322;48.846;9.230;2024-03-06T15:06:25;37.33;;;20.33;;
679;SDS011;322;48.846;9.230;2024-03-06T15:08:53;38.00;;;20.07;;
679;SDS011;322;48.846;9.230;2024-03-06T15:11:22;36.10;;;22.97;;
679;SDS011;322;48.846;9.230;2024-03-06T15:13:50;44.80;;;22.00;;
679;SDS011;322;48.846;9.230;2024-03-06T15:16:18;39.57;;;21.30;;
679;SDS011;322;48.846;9.230;2024-03-06T15:18:46;39.77;;;23.60;;
679;SDS011;322;48.846;9.230;2024-03-06T15:21:16;44.20;;;24.40;;
679;SDS011;322;48.846;9.230;2024-03-06T15:23:44;37.63;;;21.47;;
679;SDS011;322;48.846;9.230;2024-03-06T15:26:12;42.10;;;22.30;;
679;SDS011;322;48.846;9.230;2024-03-06T15:28:40;38.80;;;22.73;;
679;SDS011;322;48.846;9.230;2024-03-06T15:31:09;38.90;;;23.27;;
679;SDS011;322;48.846;9.230;2024-03-06T15:33:37;38.57;;;20.53;;
679;SDS011;322;48.846;9.230;2024-03-06T15:36:05;39.87;;;21.83;;
679;SDS011;322;48.846;9.230;2024-03-06T15:38:34;40.90;;;21.80;;
679;SDS011;322;48.846;9.230;2024-03-06T15:41:02;40.00;;;22.70;;
679;SDS011;322;48.846;9.230;2024-03-06T15:43:31;41.23;;;22.60;;